createdAt,value
2022-11-18T00:01:20.672Z,25.08
2022-11-18T00:04:12.111Z,26.83
2022-11-18T00:07:03.637Z,25.40
2022-11-18T00:09:55.489Z,27.75
2022-11-18T00:13:05.695Z,25.40
2022-11-18T00:16:05.244Z,28.77
2022-11-18T00:18:56.776Z,28.63
2022-11-18T00:21:48.865Z,26.27
2022-11-18T00:24:40.901Z,28.60
2022-11-18T00:27:33.953Z,28.90
2022-11-18T00:30:25.828Z,26.13
2022-11-18T00:33:17.272Z,27.77
2022-11-18T00:36:11.401Z,30.30
2022-11-18T00:39:03.164Z,26.53
2022-11-18T00:42:13.290Z,27.00
2022-11-18T00:45:04.890Z,30.97
2022-11-18T00:47:56.775Z,28.93
2022-11-18T00:50:48.088Z,26.60
2022-11-18T00:53:39.020Z,26.43
2022-11-18T00:56:30.250Z,29.07
2022-11-18T00:59:21.768Z,27.90
2022-11-18T01:02:13.471Z,30.23
2022-11-18T01:05:05.349Z,27.17
2022-11-18T01:07:56.873Z,26.10
2022-11-18T01:10:49.374Z,28.47
2022-11-18T01:13:41.721Z,25.07
2022-11-18T01:16:32.985Z,26.15
2022-11-18T01:19:25.365Z,26.47
2022-11-18T01:22:16.914Z,31.65
2022-11-18T01:25:09.167Z,27.60
2022-11-18T01:28:00.449Z,28.47
2022-11-18T01:30:51.732Z,28.77
2022-11-18T01:33:44.124Z,27.87
2022-11-18T01:36:36.166Z,26.48
2022-11-18T01:39:27.405Z,29.57
2022-11-18T01:42:19.611Z,25.43
2022-11-18T01:48:12.989Z,23.33
2022-11-18T01:51:08.581Z,27.83
2022-11-18T01:54:03.478Z,27.47
2022-11-18T01:56:58.712Z,24.67
2022-11-18T01:59:55.544Z,23.23
2022-11-18T02:02:47.760Z,26.23
2022-11-18T02:05:41.572Z,26.25
2022-11-18T02:08:37.604Z,26.13
2022-11-18T02:11:46.811Z,24.00
2022-11-18T02:14:43.397Z,23.17
2022-11-18T02:17:44.991Z,23.73
2022-11-18T02:20:39.808Z,24.70
2022-11-18T02:24:04.576Z,23.27
2022-11-18T02:27:32.459Z,20.87
2022-11-18T02:30:24.709Z,16.90
2022-11-18T02:33:24.900Z,13.57
2022-11-18T02:36:22.414Z,11.47
2022-11-18T02:39:22.064Z,11.50
2022-11-18T02:42:16.657Z,10.83
2022-11-18T02:45:14.031Z,9.13
2022-11-18T02:48:09.197Z,9.20
2022-11-18T02:51:02.484Z,8.37
2022-11-18T02:53:55.764Z,7.47
2022-11-18T02:56:53.583Z,7.77
2022-11-18T02:59:45.660Z,7.30
2022-11-18T03:02:45.586Z,8.43
2022-11-18T03:05:43.042Z,6.60
2022-11-18T03:08:40.691Z,8.13
2022-11-18T03:11:35.442Z,6.57
2022-11-18T03:14:36.924Z,8.43
2022-11-18T03:17:38.454Z,7.20
2022-11-18T03:20:34.643Z,8.20
2022-11-18T03:23:33.650Z,8.60
2022-11-18T03:26:31.521Z,8.00
2022-11-18T03:29:27.908Z,8.60
2022-11-18T03:32:24.680Z,7.40
2022-11-18T03:35:20.736Z,8.37
2022-11-18T03:38:16.150Z,7.67
2022-11-18T03:41:10.515Z,9.47
2022-11-18T03:44:06.634Z,8.53
2022-11-18T03:47:03.321Z,10.03
2022-11-18T03:49:59.149Z,8.15
2022-11-18T03:52:52.672Z,7.93
2022-11-18T03:55:49.300Z,7.27
2022-11-18T03:58:46.962Z,9.70
2022-11-18T04:01:46.332Z,7.70
2022-11-18T04:04:38.391Z,9.10
2022-11-18T04:07:34.694Z,11.80
2022-11-18T04:10:32.454Z,12.47
2022-11-18T04:13:30.434Z,12.20
2022-11-18T04:16:22.484Z,13.40
2022-11-18T04:19:14.529Z,14.47
2022-11-18T04:22:06.169Z,14.13
2022-11-18T04:24:57.733Z,12.85
2022-11-18T04:27:49.219Z,12.23
2022-11-18T04:30:41.100Z,10.90
2022-11-18T04:33:32.948Z,11.45
2022-11-18T04:36:24.572Z,9.90
2022-11-18T04:39:18.587Z,11.53
2022-11-18T04:42:10.727Z,9.83
2022-11-18T04:45:02.118Z,12.93
2022-11-18T04:47:56.576Z,12.17
2022-11-18T04:50:50.303Z,12.35
2022-11-18T04:53:41.935Z,12.47
2022-11-18T04:56:33.511Z,14.77
2022-11-18T04:59:28.016Z,15.55
2022-11-18T05:02:19.894Z,13.23
2022-11-18T05:05:11.532Z,16.63
2022-11-18T05:08:02.948Z,19.23
2022-11-18T05:11:15.030Z,18.17
2022-11-18T05:14:06.761Z,15.93
2022-11-18T05:17:00.037Z,22.87
2022-11-18T05:19:51.557Z,17.20
2022-11-18T05:22:43.074Z,18.90
2022-11-18T05:25:34.266Z,18.13
2022-11-18T05:28:26.187Z,17.83
2022-11-18T05:31:18.974Z,21.07
2022-11-18T05:34:11.044Z,18.30
2022-11-18T05:37:07.385Z,16.75
2022-11-18T05:39:59.079Z,17.27
2022-11-18T05:43:26.594Z,19.93
2022-11-18T05:46:17.676Z,21.10
2022-11-18T05:49:08.985Z,18.47
2022-11-18T05:52:00.902Z,19.60
2022-11-18T05:54:53.026Z,18.83
2022-11-18T05:57:44.915Z,18.90
2022-11-18T06:00:37.530Z,18.53
2022-11-18T06:03:32.118Z,20.53
2022-11-18T06:06:26.134Z,18.03
2022-11-18T06:09:21.963Z,20.33
2022-11-18T06:12:19.877Z,19.87
2022-11-18T06:15:17.634Z,20.87
2022-11-18T06:18:12.860Z,24.50
2022-11-18T06:21:09.247Z,20.70
2022-11-18T06:24:00.919Z,23.73
2022-11-18T06:26:53.007Z,25.37
2022-11-18T06:29:44.405Z,24.12
2022-11-18T06:32:36.063Z,20.37
2022-11-18T06:35:27.439Z,24.53
2022-11-18T06:38:21.086Z,22.43
2022-11-18T06:41:12.785Z,24.67
2022-11-18T06:44:04.112Z,21.90
2022-11-18T06:46:58.904Z,19.30
2022-11-18T06:49:50.248Z,21.87
2022-11-18T06:52:41.578Z,25.63
2022-11-18T06:55:33.473Z,26.63
2022-11-18T06:58:26.795Z,22.00
2022-11-18T07:01:18.914Z,22.77
2022-11-18T07:04:19.105Z,21.42
2022-11-18T07:07:11.080Z,24.37
2022-11-18T07:10:02.642Z,20.12
2022-11-18T07:12:54.234Z,25.33
2022-11-18T07:15:45.535Z,20.43
2022-11-18T07:18:38.705Z,19.33
2022-11-18T07:21:31.469Z,20.30
2022-11-18T07:24:22.790Z,21.40
2022-11-18T07:27:14.416Z,22.17
2022-11-18T07:30:06.398Z,25.33
2022-11-18T07:32:57.966Z,22.60
2022-11-18T07:35:49.280Z,23.30
2022-11-18T07:38:41.706Z,25.37
2022-11-18T07:41:34.489Z,22.52
2022-11-18T07:47:15.863Z,26.13
2022-11-18T07:50:08.233Z,23.80
2022-11-18T07:53:00.427Z,23.87
2022-11-18T07:55:51.859Z,22.85
2022-11-18T07:58:43.646Z,23.10
2022-11-18T08:01:35.347Z,22.30
2022-11-18T08:04:27.291Z,27.32
2022-11-18T08:07:18.787Z,22.70
2022-11-18T08:10:12.000Z,22.02
2022-11-18T08:13:03.714Z,23.03
2022-11-18T08:15:56.781Z,24.57
2022-11-18T08:18:49.447Z,21.60
2022-11-18T08:24:31.218Z,22.27
2022-11-18T08:27:23.154Z,21.37
2022-11-18T08:30:16.101Z,20.23
2022-11-18T08:33:08.001Z,22.70
2022-11-18T08:35:59.352Z,25.43
2022-11-18T08:38:51.084Z,28.23
2022-11-18T08:41:44.757Z,28.17
2022-11-18T08:44:36.492Z,26.20
2022-11-18T08:47:28.043Z,23.03
2022-11-18T08:50:19.764Z,24.83
2022-11-18T08:53:11.276Z,26.42
2022-11-18T08:56:03.420Z,27.13
2022-11-18T08:58:55.622Z,24.23
2022-11-18T09:01:47.011Z,25.57
2022-11-18T09:04:38.766Z,26.57
2022-11-18T09:07:31.787Z,25.97
2022-11-18T09:10:23.619Z,26.60
2022-11-18T09:13:43.436Z,24.63
2022-11-18T09:16:28.717Z,24.60
2022-11-18T09:22:30.236Z,22.87
2022-11-18T09:25:22.159Z,26.77
2022-11-18T09:28:33.423Z,28.73
2022-11-18T09:31:28.191Z,24.83
2022-11-18T09:34:29.008Z,28.12
2022-11-18T09:37:26.493Z,23.10
2022-11-18T09:40:23.665Z,27.70
2022-11-18T11:02:58.661Z,20.60
2022-11-18T11:06:44.698Z,20.47
2022-11-18T11:12:14.514Z,19.67
2022-11-18T11:14:54.503Z,19.73
2022-11-18T11:17:35.392Z,20.73
2022-11-18T11:20:18.670Z,20.60
2022-11-18T11:37:24.139Z,21.33
2022-11-18T11:40:26.060Z,21.47
2022-11-18T11:43:13.322Z,21.83
2022-11-18T11:46:05.072Z,22.10
2022-11-18T11:48:53.902Z,19.43
2022-11-18T11:51:34.004Z,20.17
2022-11-18T11:54:17.643Z,21.87
2022-11-18T11:56:56.784Z,24.30
2022-11-18T11:59:39.127Z,21.77
2022-11-18T12:02:37.585Z,21.43
2022-11-18T12:05:23.604Z,23.57
2022-11-18T12:07:59.823Z,23.30
2022-11-18T12:10:44.522Z,22.63
2022-11-18T12:13:27.576Z,23.63
2022-11-18T12:16:12.911Z,22.50
2022-11-18T12:18:50.539Z,19.80
2022-11-18T12:21:58.423Z,25.30
2022-11-18T12:24:37.862Z,21.20
2022-11-18T12:27:16.399Z,20.87
2022-11-18T12:30:01.965Z,21.13
2022-11-18T12:32:43.054Z,22.87
2022-11-18T12:35:32.381Z,21.80
2022-11-18T12:38:06.561Z,21.90
2022-11-18T12:40:47.239Z,21.37
2022-11-18T12:44:06.739Z,24.20
2022-11-18T12:47:00.207Z,21.10
2022-11-18T12:50:15.406Z,24.23
2022-11-18T12:52:56.099Z,22.67
2022-11-18T12:55:34.859Z,24.27
2022-11-18T12:58:25.743Z,20.60
2022-11-18T13:01:12.710Z,22.27
2022-11-18T13:03:46.590Z,21.90
2022-11-18T13:06:29.944Z,22.80
2022-11-18T13:09:06.008Z,22.27
2022-11-18T13:11:51.260Z,20.80
2022-11-18T13:14:46.658Z,20.73
2022-11-18T13:17:48.119Z,19.03
2022-11-18T13:20:31.544Z,17.57
2022-11-18T13:23:25.210Z,20.53
2022-11-18T13:26:06.266Z,20.97
2022-11-18T13:28:48.100Z,21.97
2022-11-18T13:31:29.149Z,20.50
2022-11-18T13:34:13.543Z,20.73
2022-11-18T13:36:49.590Z,18.90
2022-11-18T13:39:25.384Z,22.67
2022-11-18T13:42:07.395Z,22.03
2022-11-18T13:44:41.383Z,26.13
2022-11-18T13:47:25.568Z,24.63
2022-11-18T13:50:07.762Z,25.63
2022-11-18T13:52:45.144Z,26.40
2022-11-18T13:55:23.929Z,27.50
2022-11-18T13:58:08.239Z,23.50
2022-11-18T14:00:41.737Z,23.80
2022-11-18T14:03:28.141Z,25.73
2022-11-18T14:06:02.571Z,26.23
2022-11-18T14:08:38.420Z,25.67
2022-11-18T14:11:13.259Z,30.17
2022-11-18T14:14:03.622Z,27.73
2022-11-18T14:16:40.634Z,24.20
2022-11-18T14:19:31.659Z,23.27
2022-11-18T14:22:13.818Z,29.07
2022-11-18T14:24:55.260Z,30.17
2022-11-18T14:27:41.375Z,26.03
2022-11-18T14:30:36.281Z,28.87
2022-11-18T14:33:18.556Z,25.30
2022-11-18T14:38:51.927Z,29.30
2022-11-18T14:41:48.899Z,24.40
2022-11-18T14:44:24.524Z,26.33
2022-11-18T14:47:01.524Z,31.03
2022-11-18T14:49:35.374Z,26.87
2022-11-18T14:52:11.175Z,27.73
2022-11-18T14:54:44.483Z,25.47
2022-11-18T14:57:19.256Z,26.90
2022-11-18T14:59:52.873Z,26.95
2022-11-18T15:02:26.066Z,29.70
2022-11-18T15:04:59.430Z,27.80
2022-11-18T15:07:32.682Z,29.47
2022-11-18T15:10:06.647Z,30.97
2022-11-18T15:12:40.024Z,31.30
2022-11-18T15:15:14.137Z,28.10
2022-11-18T15:17:51.115Z,26.87
2022-11-18T15:20:27.174Z,29.33
2022-11-18T15:23:00.566Z,27.27
2022-11-18T15:25:34.167Z,28.57
2022-11-18T15:28:08.038Z,29.20
2022-11-18T15:30:41.568Z,29.10
2022-11-18T15:33:15.171Z,33.00
2022-11-18T15:35:48.564Z,31.90
2022-11-18T15:38:21.963Z,31.43
2022-11-18T15:40:55.493Z,33.30
2022-11-18T15:43:29.333Z,29.70
2022-11-18T15:46:03.972Z,34.33
2022-11-18T15:48:37.565Z,29.17
2022-11-18T15:51:12.262Z,30.13
2022-11-18T15:53:46.350Z,29.90
2022-11-18T15:56:29.399Z,30.73
2022-11-18T15:59:04.067Z,31.97
2022-11-18T16:01:39.543Z,33.43
2022-11-18T16:04:15.897Z,33.93
2022-11-18T16:06:49.796Z,31.83
2022-11-18T16:09:23.205Z,35.07
2022-11-18T16:12:13.774Z,36.23
2022-11-18T16:15:07.250Z,36.77
2022-11-18T16:17:40.503Z,38.33
2022-11-18T16:20:15.451Z,40.20
2022-11-18T16:22:49.060Z,38.10
2022-11-18T16:25:22.331Z,37.80
2022-11-18T16:27:55.849Z,36.17
2022-11-18T16:30:46.448Z,34.80
2022-11-18T16:33:19.926Z,35.10
2022-11-18T16:35:53.039Z,35.80
2022-11-18T16:38:26.634Z,32.03
2022-11-18T16:41:00.817Z,37.63
2022-11-18T16:43:33.900Z,34.83
2022-11-18T16:46:11.757Z,33.70
2022-11-18T16:48:45.601Z,34.30
2022-11-18T16:51:25.056Z,32.40
2022-11-18T16:53:59.533Z,36.03
2022-11-18T16:56:34.735Z,37.03
2022-11-18T16:59:12.561Z,36.80
2022-11-18T17:01:46.657Z,35.53
2022-11-18T17:04:20.911Z,33.67
2022-11-18T17:06:55.416Z,37.97
2022-11-18T17:09:29.223Z,37.57
2022-11-18T17:12:03.429Z,37.97
2022-11-18T17:14:38.759Z,37.53
2022-11-18T17:17:12.334Z,33.23
2022-11-18T17:19:45.935Z,38.33
2022-11-18T17:22:19.742Z,34.43
2022-11-18T17:24:53.014Z,38.40
2022-11-18T17:27:26.427Z,37.93
2022-11-18T17:29:59.922Z,33.27
2022-11-18T17:32:33.325Z,36.17
2022-11-18T17:35:08.491Z,35.07
2022-11-18T17:37:41.856Z,35.73
2022-11-18T17:40:16.946Z,37.97
2022-11-18T17:42:53.077Z,38.27
2022-11-18T17:45:26.863Z,37.10
2022-11-18T17:48:00.853Z,40.43
2022-11-18T17:50:34.465Z,38.07
2022-11-18T17:53:07.774Z,38.33
2022-11-18T17:55:41.218Z,39.67
2022-11-18T17:58:15.297Z,40.85
2022-11-18T18:00:48.425Z,40.90
2022-11-18T18:03:21.849Z,37.57
2022-11-18T18:06:02.528Z,37.27
2022-11-18T18:08:36.518Z,39.23
2022-11-18T18:11:13.472Z,41.87
2022-11-18T18:14:04.700Z,40.77
2022-11-18T18:16:38.170Z,40.83
2022-11-18T18:19:14.054Z,39.67
2022-11-18T18:21:48.780Z,42.20
2022-11-18T18:24:22.612Z,39.03
2022-11-18T18:26:58.009Z,39.47
2022-11-18T18:29:31.010Z,37.77
2022-11-18T18:32:04.406Z,37.60
2022-11-18T18:34:37.621Z,36.73
2022-11-18T18:37:11.052Z,37.63
2022-11-18T18:39:44.177Z,37.40
2022-11-18T18:42:17.344Z,36.00
2022-11-18T18:45:08.378Z,37.67
2022-11-18T18:47:42.998Z,36.20
2022-11-18T18:50:16.057Z,37.13
2022-11-18T18:52:49.790Z,36.77
2022-11-18T18:55:23.389Z,37.60
2022-11-18T18:57:56.782Z,41.43
2022-11-18T19:00:33.164Z,40.87
2022-11-18T19:03:06.544Z,38.27
2022-11-18T19:06:16.962Z,38.47
2022-11-18T19:08:33.972Z,42.50
2022-11-18T19:11:30.768Z,40.53
2022-11-18T19:14:09.309Z,40.97
2022-11-18T19:16:44.049Z,41.17
2022-11-18T19:19:19.295Z,38.93
2022-11-18T19:21:52.617Z,40.57
2022-11-18T19:27:19.572Z,39.67
2022-11-18T19:29:52.939Z,42.00
2022-11-18T19:32:26.906Z,42.63
2022-11-18T19:35:00.498Z,44.47
2022-11-18T19:37:34.157Z,41.83
2022-11-18T19:40:10.515Z,41.70
2022-11-18T19:42:44.185Z,41.43
2022-11-18T19:45:17.850Z,42.27
2022-11-18T19:47:51.219Z,41.97
2022-11-18T19:50:24.760Z,42.80
2022-11-18T19:52:58.245Z,42.53
2022-11-18T19:55:31.748Z,41.13
2022-11-18T19:58:05.255Z,44.10
2022-11-18T20:00:38.590Z,37.90
2022-11-18T20:03:11.993Z,37.40
2022-11-18T20:05:54.640Z,41.20
2022-11-18T20:08:28.626Z,38.13
2022-11-18T20:11:09.104Z,40.30
2022-11-18T20:13:47.261Z,39.43
2022-11-18T20:16:22.637Z,39.90
2022-11-18T20:18:58.587Z,40.87
2022-11-18T20:21:33.276Z,47.27
2022-11-18T20:24:09.101Z,41.23
2022-11-18T20:26:42.172Z,45.17
2022-11-18T20:29:16.636Z,40.00
2022-11-18T20:31:50.199Z,42.40
2022-11-18T20:34:23.798Z,40.70
2022-11-18T20:36:57.011Z,40.97
2022-11-18T20:39:30.587Z,41.73
2022-11-18T20:42:20.778Z,37.77
2022-11-18T20:44:54.376Z,41.80
2022-11-18T20:47:27.566Z,42.57
2022-11-18T20:50:00.757Z,41.53
2022-11-18T20:52:36.240Z,41.53
2022-11-18T20:55:11.726Z,40.27
2022-11-18T20:57:45.036Z,37.37
2022-11-18T21:00:19.833Z,39.43
2022-11-18T21:02:53.073Z,38.90
2022-11-18T21:05:26.459Z,42.27
2022-11-18T21:07:59.433Z,39.25
2022-11-18T21:10:33.668Z,36.47
2022-11-18T21:13:24.247Z,40.40
2022-11-18T21:15:57.287Z,38.13
2022-11-18T21:18:33.718Z,40.87
2022-11-18T21:21:24.705Z,41.73
2022-11-18T21:23:59.858Z,41.70
2022-11-18T21:26:34.467Z,41.73
2022-11-18T21:29:09.704Z,42.13
2022-11-18T21:31:44.123Z,41.17
2022-11-18T21:34:18.960Z,38.77
2022-11-18T21:36:54.847Z,39.70
2022-11-18T21:39:29.326Z,40.90
2022-11-18T21:42:02.541Z,43.37
2022-11-18T21:44:36.112Z,39.63
2022-11-18T21:47:09.306Z,42.27
2022-11-18T21:49:43.115Z,43.30
2022-11-18T21:52:16.556Z,47.63
2022-11-18T21:54:49.694Z,47.77
2022-11-18T21:57:22.881Z,52.87
2022-11-18T21:59:56.969Z,45.60
2022-11-18T22:02:30.080Z,44.73
2022-11-18T22:05:07.028Z,45.43
2022-11-18T22:07:41.726Z,44.40
2022-11-18T22:10:17.054Z,42.60
2022-11-18T22:12:51.724Z,43.57
2022-11-18T22:15:25.442Z,45.10
2022-11-18T22:17:58.844Z,46.87
2022-11-18T22:20:32.238Z,46.23
2022-11-18T22:23:06.251Z,50.33
2022-11-18T22:25:39.316Z,46.53
2022-11-18T22:28:13.243Z,46.63
2022-11-18T22:30:46.433Z,43.10
2022-11-18T22:33:19.831Z,47.33
2022-11-18T22:35:52.987Z,48.27
2022-11-18T22:38:26.630Z,44.60
2022-11-18T22:41:04.052Z,42.27
2022-11-18T22:43:37.915Z,44.33
2022-11-18T22:46:12.280Z,42.40
2022-11-18T22:48:45.938Z,46.90
2022-11-18T22:51:20.009Z,46.17
2022-11-18T22:54:09.753Z,48.27
2022-11-18T22:56:46.971Z,44.50
2022-11-18T22:59:20.618Z,45.70
2022-11-18T23:01:54.995Z,42.90
2022-11-18T23:04:28.214Z,44.93
2022-11-18T23:07:01.870Z,48.80
2022-11-18T23:09:35.414Z,46.93
2022-11-18T23:12:27.648Z,52.03
2022-11-18T23:15:01.246Z,46.27
2022-11-18T23:17:34.653Z,47.50
2022-11-18T23:20:10.823Z,43.17
2022-11-18T23:22:43.890Z,49.03
2022-11-18T23:25:17.422Z,54.13
2022-11-18T23:27:54.165Z,49.93
2022-11-18T23:30:27.459Z,47.83
2022-11-18T23:33:00.806Z,45.50
2022-11-18T23:35:34.372Z,49.47
2022-11-18T23:38:07.946Z,46.03
2022-11-18T23:40:41.543Z,47.37
2022-11-18T23:43:14.938Z,48.53
2022-11-18T23:45:48.329Z,48.53
2022-11-18T23:48:23.024Z,47.80
2022-11-18T23:51:00.932Z,44.07
2022-11-18T23:53:35.146Z,46.73
2022-11-18T23:56:12.178Z,47.83
2022-11-18T23:58:46.943Z,47.30
